Home   Weather   Russia   Chita   Past weeks
Flag for Russia

Past Weather in Chita, Russia — Yesterday and Last 2 Weeks

Currently: 45 °F. Clear. (Weather station: Chita Airport, Russia). See more current weather

Past Weather in Chita — Graph

°F

Chita Temperature Yesterday

Maximum temperature yesterday: 66 °F (at 4:30 pm)
Minimum temperature yesterday: 27 °F (at 3:00 am)
Average temperature yesterday: 44 °F

High & Low Weather Summary for the Past Weeks

 TemperatureHumidityPressure
High66 °F (Apr 20, 4:30 pm)86% (Apr 7, 6:00 am)30.33 "Hg (Apr 7, 6:00 am)
Low14 °F (Apr 12, 5:00 am)13% (Apr 19, 2:30 pm)29.56 "Hg (Apr 18, 3:30 am)
Average35 °F39%29.95 "Hg
* Reported Apr 6 9:30 am — Apr 21 9:30 am, Chita. Weather by CustomWeather, © 2021

Note: Actual official high and low records may vary slightly from our data, if they occured in-between our weather recording intervals... More about our weather records

Chita Weather History for the Previous 24 Hours

Scroll right to see more
 ConditionsComfort  
Time TempWeatherWind HumidityBarometerVisibility
9:30 am
Wed, Apr 21
45 °FClear.1 mph34%29.62 "HgN/A
9:00 am43 °FClear.3 mph39%29.62 "HgN/A
8:30 am39 °FClear.3 mph45%29.62 "HgN/A
8:00 am36 °FClear.1 mph56%29.62 "HgN/A
7:30 am30 °FClear.No wind69%29.62 "HgN/A
7:00 am28 °FClear.1 mph69%29.62 "HgN/A
6:30 am27 °FClear.No wind74%29.59 "HgN/A
6:00 am27 °FClear.1 mph74%29.59 "HgN/A
5:30 am27 °FClear.3 mph74%29.59 "HgN/A
5:00 am27 °FClear.3 mph74%29.59 "HgN/A
4:30 am28 °FClear.1 mph69%29.59 "HgN/A
4:00 am30 °FClear.3 mph69%29.59 "HgN/A
3:30 am30 °FChilly.6 mph64%29.59 "HgN/A
3:00 am30 °FChilly.1 mph64%29.56 "HgN/A
2:30 am30 °FChilly.1 mph64%29.56 "HgN/A
2:00 am30 °FChilly.1 mph64%29.56 "HgN/A
1:30 am32 °FChilly.3 mph60%29.56 "HgN/A
1:00 am32 °FChilly.6 mph60%29.56 "HgN/A
12:30 am32 °FChilly.3 mph60%29.59 "HgN/A
12:00 am37 °FChilly.3 mph48%29.59 "HgN/A
11:30 pm
Tue, Apr 20
37 °FChilly.6 mph48%29.59 "HgN/A
11:00 pm37 °FChilly.3 mph48%29.59 "HgN/A
10:30 pm41 °FQuite cool.6 mph42%29.59 "HgN/A
10:00 pm41 °FQuite cool.6 mph42%29.59 "HgN/A
9:30 pm45 °FClear.6 mph37%29.59 "HgN/A
9:00 pm45 °FClear.8 mph39%29.59 "HgN/A
8:30 pm59 °FClear.6 mph17%29.59 "HgN/A
8:00 pm61 °FClear.No wind17%29.56 "HgN/A
7:30 pm66 °FClear.1 mph14%29.56 "HgN/A
7:00 pm66 °FClear.3 mph15%29.56 "HgN/A
6:30 pm64 °FClear.3 mph15%29.59 "HgN/A
6:00 pm64 °FClear.6 mph15%29.59 "HgN/A
5:30 pm64 °FClear.8 mph15%29.59 "HgN/A
5:00 pm64 °FClear.3 mph15%29.59 "HgN/A
4:30 pm66 °FClear.6 mph15%29.59 "HgN/A
4:00 pm64 °FClear.6 mph16%29.62 "HgN/A
3:30 pm63 °FClear.3 mph17%29.62 "HgN/A
3:00 pm61 °FClear.1 mph17%29.62 "HgN/A
2:30 pm59 °FClear.1 mph18%29.65 "HgN/A
2:00 pm55 °FClear.1 mph19%29.65 "HgN/A
1:30 pm54 °FClear.No wind21%29.65 "HgN/A
1:00 pm52 °FClear.No wind20%29.65 "HgN/A
12:30 pm48 °FClear.3 mph21%29.65 "HgN/A
12:00 pm46 °FClear.No wind21%29.68 "HgN/A
11:30 am45 °FClear.3 mph23%29.68 "HgN/A
10:30 am41 °FClear.6 mph24%29.68 "HgN/A
10:00 am41 °FClear.1 mph24%29.68 "HgN/A
Weather by CustomWeather, © 2021

See weather overview